sensor_id;sensor_type;location;lat;lon;timestamp;temperature;humidity
23079;DHT22;11707;50.830;4.364;2022-08-27T00:00:40;18.50;99.90
23079;DHT22;11707;50.830;4.364;2022-08-27T00:03:06;18.50;99.90
23079;DHT22;11707;50.830;4.364;2022-08-27T00:05:32;18.50;99.90
23079;DHT22;11707;50.830;4.364;2022-08-27T00:07:58;18.50;99.90
23079;DHT22;11707;50.830;4.364;2022-08-27T00:10:25;18.40;99.90
23079;DHT22;11707;50.830;4.364;2022-08-27T00:12:53;18.40;99.90
23079;DHT22;11707;50.830;4.364;2022-08-27T00:15:20;18.40;99.90
23079;DHT22;11707;50.830;4.364;2022-08-27T00:17:47;18.40;99.90
23079;DHT22;11707;50.830;4.364;2022-08-27T00:20:16;18.40;99.90
23079;DHT22;11707;50.830;4.364;2022-08-27T00:22:42;18.40;99.90
23079;DHT22;11707;50.830;4.364;2022-08-27T00:25:09;18.30;99.90
23079;DHT22;11707;50.830;4.364;2022-08-27T00:27:35;18.30;99.90
23079;DHT22;11707;50.830;4.364;2022-08-27T00:30:03;18.30;99.90
23079;DHT22;11707;50.830;4.364;2022-08-27T00:32:29;18.30;99.90
23079;DHT22;11707;50.830;4.364;2022-08-27T00:34:55;18.40;99.90
23079;DHT22;11707;50.830;4.364;2022-08-27T00:37:20;18.40;99.90
23079;DHT22;11707;50.830;4.364;2022-08-27T00:39:46;18.40;99.90
23079;DHT22;11707;50.830;4.364;2022-08-27T00:42:12;18.40;99.90
23079;DHT22;11707;50.830;4.364;2022-08-27T00:44:39;18.40;99.90
23079;DHT22;11707;50.830;4.364;2022-08-27T00:47:11;18.50;99.90
23079;DHT22;11707;50.830;4.364;2022-08-27T00:49:50;18.60;99.90
23079;DHT22;11707;50.830;4.364;2022-08-27T00:54:46;18.40;99.90
23079;DHT22;11707;50.830;4.364;2022-08-27T00:57:13;18.40;99.90
23079;DHT22;11707;50.830;4.364;2022-08-27T00:59:41;18.60;99.90
23079;DHT22;11707;50.830;4.364;2022-08-27T01:02:07;18.60;99.90
23079;DHT22;11707;50.830;4.364;2022-08-27T01:04:55;18.60;99.90
23079;DHT22;11707;50.830;4.364;2022-08-27T01:07:24;18.40;99.90
23079;DHT22;11707;50.830;4.364;2022-08-27T01:09:52;18.30;99.90
23079;DHT22;11707;50.830;4.364;2022-08-27T01:12:19;18.30;99.90
23079;DHT22;11707;50.830;4.364;2022-08-27T01:14:45;18.40;99.90
23079;DHT22;11707;50.830;4.364;2022-08-27T01:17:12;18.40;99.90
23079;DHT22;11707;50.830;4.364;2022-08-27T01:19:49;18.40;99.90
23079;DHT22;11707;50.830;4.364;2022-08-27T01:25:13;18.40;99.90
23079;DHT22;11707;50.830;4.364;2022-08-27T01:27:41;18.40;99.90
23079;DHT22;11707;50.830;4.364;2022-08-27T01:30:10;18.40;99.90
23079;DHT22;11707;50.830;4.364;2022-08-27T01:32:37;18.40;99.90
23079;DHT22;11707;50.830;4.364;2022-08-27T01:35:07;18.30;99.90
23079;DHT22;11707;50.830;4.364;2022-08-27T01:37:34;18.20;99.90
23079;DHT22;11707;50.830;4.364;2022-08-27T01:40:01;18.20;99.90
23079;DHT22;11707;50.830;4.364;2022-08-27T01:42:37;18.20;99.90
23079;DHT22;11707;50.830;4.364;2022-08-27T01:45:08;18.00;99.90
23079;DHT22;11707;50.830;4.364;2022-08-27T01:47:34;18.00;99.90
23079;DHT22;11707;50.830;4.364;2022-08-27T01:50:04;17.90;99.90
23079;DHT22;11707;50.830;4.364;2022-08-27T01:52:31;18.00;99.90
23079;DHT22;11707;50.830;4.364;2022-08-27T01:54:57;18.00;99.90
23079;DHT22;11707;50.830;4.364;2022-08-27T01:57:23;18.10;99.90
23079;DHT22;11707;50.830;4.364;2022-08-27T01:59:48;18.10;99.90
23079;DHT22;11707;50.830;4.364;2022-08-27T02:02:15;18.10;99.90
23079;DHT22;11707;50.830;4.364;2022-08-27T02:04:42;18.20;99.90
23079;DHT22;11707;50.830;4.364;2022-08-27T02:07:08;18.10;99.90
23079;DHT22;11707;50.830;4.364;2022-08-27T02:09:34;18.10;99.90
23079;DHT22;11707;50.830;4.364;2022-08-27T02:12:00;18.00;99.90
23079;DHT22;11707;50.830;4.364;2022-08-27T02:14:27;18.00;99.90
23079;DHT22;11707;50.830;4.364;2022-08-27T02:16:53;18.00;99.90
23079;DHT22;11707;50.830;4.364;2022-08-27T02:19:20;17.90;99.90
23079;DHT22;11707;50.830;4.364;2022-08-27T02:21:46;17.80;99.90
23079;DHT22;11707;50.830;4.364;2022-08-27T02:24:12;17.90;99.90
23079;DHT22;11707;50.830;4.364;2022-08-27T02:26:38;17.80;99.90
23079;DHT22;11707;50.830;4.364;2022-08-27T02:29:04;17.70;99.90
23079;DHT22;11707;50.830;4.364;2022-08-27T02:31:30;17.70;99.90
23079;DHT22;11707;50.830;4.364;2022-08-27T02:33:56;17.80;99.90
23079;DHT22;11707;50.830;4.364;2022-08-27T02:36:23;17.70;99.90
23079;DHT22;11707;50.830;4.364;2022-08-27T02:38:49;17.70;99.90
23079;DHT22;11707;50.830;4.364;2022-08-27T02:41:15;17.80;99.90
23079;DHT22;11707;50.830;4.364;2022-08-27T02:43:42;17.80;99.90
23079;DHT22;11707;50.830;4.364;2022-08-27T02:46:09;17.80;99.90
23079;DHT22;11707;50.830;4.364;2022-08-27T02:48:38;18.00;99.90
23079;DHT22;11707;50.830;4.364;2022-08-27T02:51:03;17.90;99.90
23079;DHT22;11707;50.830;4.364;2022-08-27T02:53:31;18.00;99.90
23079;DHT22;11707;50.830;4.364;2022-08-27T02:55:57;17.90;99.90
23079;DHT22;11707;50.830;4.364;2022-08-27T02:58:23;17.80;99.90
23079;DHT22;11707;50.830;4.364;2022-08-27T03:00:49;17.80;99.90
23079;DHT22;11707;50.830;4.364;2022-08-27T03:03:15;17.80;99.90
23079;DHT22;11707;50.830;4.364;2022-08-27T03:05:42;17.80;99.90
23079;DHT22;11707;50.830;4.364;2022-08-27T03:08:08;17.80;99.90
23079;DHT22;11707;50.830;4.364;2022-08-27T03:10:34;17.80;99.90
23079;DHT22;11707;50.830;4.364;2022-08-27T03:13:00;17.70;99.90
23079;DHT22;11707;50.830;4.364;2022-08-27T03:15:26;17.70;99.90
23079;DHT22;11707;50.830;4.364;2022-08-27T03:17:52;17.70;99.90
23079;DHT22;11707;50.830;4.364;2022-08-27T03:20:39;17.70;99.90
23079;DHT22;11707;50.830;4.364;2022-08-27T03:23:06;17.60;99.90
23079;DHT22;11707;50.830;4.364;2022-08-27T03:25:32;17.50;99.90
23079;DHT22;11707;50.830;4.364;2022-08-27T03:27:58;17.50;99.90
23079;DHT22;11707;50.830;4.364;2022-08-27T03:30:24;17.50;99.90
23079;DHT22;11707;50.830;4.364;2022-08-27T03:32:50;17.60;99.90
23079;DHT22;11707;50.830;4.364;2022-08-27T03:35:17;17.50;99.90
23079;DHT22;11707;50.830;4.364;2022-08-27T03:37:42;17.50;99.90
23079;DHT22;11707;50.830;4.364;2022-08-27T03:40:08;17.50;99.90
23079;DHT22;11707;50.830;4.364;2022-08-27T03:42:35;17.50;99.90
23079;DHT22;11707;50.830;4.364;2022-08-27T03:45:01;17.40;99.90
23079;DHT22;11707;50.830;4.364;2022-08-27T03:47:27;17.40;99.90
23079;DHT22;11707;50.830;4.364;2022-08-27T03:49:52;17.30;99.90
23079;DHT22;11707;50.830;4.364;2022-08-27T03:52:18;17.30;99.90
23079;DHT22;11707;50.830;4.364;2022-08-27T03:54:45;17.20;99.90
23079;DHT22;11707;50.830;4.364;2022-08-27T03:57:11;17.30;99.90
23079;DHT22;11707;50.830;4.364;2022-08-27T03:59:37;17.30;99.90
23079;DHT22;11707;50.830;4.364;2022-08-27T04:02:03;17.40;99.90
23079;DHT22;11707;50.830;4.364;2022-08-27T04:04:29;17.30;99.90
23079;DHT22;11707;50.830;4.364;2022-08-27T04:06:56;17.40;99.90
23079;DHT22;11707;50.830;4.364;2022-08-27T04:09:21;17.50;99.90
23079;DHT22;11707;50.830;4.364;2022-08-27T04:11:47;17.50;99.90
23079;DHT22;11707;50.830;4.364;2022-08-27T04:14:13;17.50;99.90
23079;DHT22;11707;50.830;4.364;2022-08-27T04:16:39;17.40;99.90
23079;DHT22;11707;50.830;4.364;2022-08-27T04:19:06;17.40;99.90
23079;DHT22;11707;50.830;4.364;2022-08-27T04:21:32;17.40;99.90
23079;DHT22;11707;50.830;4.364;2022-08-27T04:24:00;17.50;99.90
23079;DHT22;11707;50.830;4.364;2022-08-27T04:26:27;17.50;99.90
23079;DHT22;11707;50.830;4.364;2022-08-27T04:28:53;17.50;99.90
23079;DHT22;11707;50.830;4.364;2022-08-27T04:31:19;17.50;99.90
23079;DHT22;11707;50.830;4.364;2022-08-27T04:33:46;17.50;99.90
23079;DHT22;11707;50.830;4.364;2022-08-27T04:36:13;17.50;99.90
23079;DHT22;11707;50.830;4.364;2022-08-27T04:38:39;17.60;99.90
23079;DHT22;11707;50.830;4.364;2022-08-27T04:41:06;17.50;99.90
23079;DHT22;11707;50.830;4.364;2022-08-27T04:43:50;17.50;99.90
23079;DHT22;11707;50.830;4.364;2022-08-27T04:48:50;17.40;99.90
23079;DHT22;11707;50.830;4.364;2022-08-27T04:51:16;17.30;99.90
23079;DHT22;11707;50.830;4.364;2022-08-27T04:53:42;17.30;99.90
23079;DHT22;11707;50.830;4.364;2022-08-27T04:56:12;17.30;99.90
23079;DHT22;11707;50.830;4.364;2022-08-27T04:58:38;17.30;99.90
23079;DHT22;11707;50.830;4.364;2022-08-27T05:01:04;17.30;99.90
23079;DHT22;11707;50.830;4.364;2022-08-27T05:03:29;17.30;99.90
23079;DHT22;11707;50.830;4.364;2022-08-27T05:06:00;17.40;99.90
23079;DHT22;11707;50.830;4.364;2022-08-27T05:08:27;17.40;99.90
23079;DHT22;11707;50.830;4.364;2022-08-27T05:10:52;17.40;99.90
23079;DHT22;11707;50.830;4.364;2022-08-27T05:13:20;17.50;99.90
23079;DHT22;11707;50.830;4.364;2022-08-27T05:15:46;17.50;99.90
23079;DHT22;11707;50.830;4.364;2022-08-27T05:18:13;17.50;99.90
23079;DHT22;11707;50.830;4.364;2022-08-27T05:20:45;17.60;99.90
23079;DHT22;11707;50.830;4.364;2022-08-27T05:23:12;17.60;99.90
23079;DHT22;11707;50.830;4.364;2022-08-27T05:25:41;17.50;99.90
23079;DHT22;11707;50.830;4.364;2022-08-27T05:28:09;17.60;99.90
23079;DHT22;11707;50.830;4.364;2022-08-27T05:30:40;17.60;99.90
23079;DHT22;11707;50.830;4.364;2022-08-27T05:33:06;17.60;99.90
23079;DHT22;11707;50.830;4.364;2022-08-27T05:35:39;17.70;99.90
23079;DHT22;11707;50.830;4.364;2022-08-27T05:38:05;17.70;99.90
23079;DHT22;11707;50.830;4.364;2022-08-27T05:40:31;17.80;99.90
23079;DHT22;11707;50.830;4.364;2022-08-27T05:42:58;17.80;99.90
23079;DHT22;11707;50.830;4.364;2022-08-27T05:45:23;17.80;99.90
23079;DHT22;11707;50.830;4.364;2022-08-27T05:47:49;17.80;99.90
23079;DHT22;11707;50.830;4.364;2022-08-27T05:50:15;17.90;99.90
23079;DHT22;11707;50.830;4.364;2022-08-27T05:52:41;17.90;99.90
23079;DHT22;11707;50.830;4.364;2022-08-27T05:55:07;17.90;99.90
23079;DHT22;11707;50.830;4.364;2022-08-27T05:57:33;18.00;99.90
23079;DHT22;11707;50.830;4.364;2022-08-27T05:59:59;18.10;99.90
23079;DHT22;11707;50.830;4.364;2022-08-27T06:02:43;18.10;99.90
23079;DHT22;11707;50.830;4.364;2022-08-27T06:05:10;18.10;99.90
23079;DHT22;11707;50.830;4.364;2022-08-27T06:07:37;18.10;99.90
23079;DHT22;11707;50.830;4.364;2022-08-27T06:10:03;18.00;99.90
23079;DHT22;11707;50.830;4.364;2022-08-27T06:12:31;18.10;99.90
23079;DHT22;11707;50.830;4.364;2022-08-27T06:14:57;18.20;99.90
23079;DHT22;11707;50.830;4.364;2022-08-27T06:17:23;18.20;99.90
23079;DHT22;11707;50.830;4.364;2022-08-27T06:19:49;18.30;99.90
23079;DHT22;11707;50.830;4.364;2022-08-27T06:22:15;18.30;99.90
23079;DHT22;11707;50.830;4.364;2022-08-27T06:24:41;18.30;99.90
23079;DHT22;11707;50.830;4.364;2022-08-27T06:27:13;18.30;99.90
23079;DHT22;11707;50.830;4.364;2022-08-27T06:29:39;18.30;99.90
23079;DHT22;11707;50.830;4.364;2022-08-27T06:32:06;18.20;99.90
23079;DHT22;11707;50.830;4.364;2022-08-27T06:34:32;18.20;99.90
23079;DHT22;11707;50.830;4.364;2022-08-27T06:36:58;18.20;99.90
23079;DHT22;11707;50.830;4.364;2022-08-27T06:39:24;18.30;99.90
23079;DHT22;11707;50.830;4.364;2022-08-27T06:41:50;18.50;99.90
23079;DHT22;11707;50.830;4.364;2022-08-27T06:44:16;18.60;99.90
23079;DHT22;11707;50.830;4.364;2022-08-27T06:46:42;18.50;99.90
23079;DHT22;11707;50.830;4.364;2022-08-27T06:49:09;18.40;99.90
23079;DHT22;11707;50.830;4.364;2022-08-27T06:51:37;18.40;99.90
23079;DHT22;11707;50.830;4.364;2022-08-27T06:54:06;18.30;99.90
23079;DHT22;11707;50.830;4.364;2022-08-27T06:56:32;18.20;99.90
23079;DHT22;11707;50.830;4.364;2022-08-27T06:59:00;18.30;99.90
23079;DHT22;11707;50.830;4.364;2022-08-27T07:01:31;18.30;99.90
23079;DHT22;11707;50.830;4.364;2022-08-27T07:04:00;18.40;99.90
23079;DHT22;11707;50.830;4.364;2022-08-27T07:06:28;18.20;99.90
23079;DHT22;11707;50.830;4.364;2022-08-27T07:08:54;18.40;99.90
23079;DHT22;11707;50.830;4.364;2022-08-27T07:11:21;18.40;99.90
23079;DHT22;11707;50.830;4.364;2022-08-27T07:13:48;18.50;99.90
23079;DHT22;11707;50.830;4.364;2022-08-27T07:16:16;18.50;99.90
23079;DHT22;11707;50.830;4.364;2022-08-27T07:18:43;18.50;99.90
23079;DHT22;11707;50.830;4.364;2022-08-27T07:21:09;18.50;99.90
23079;DHT22;11707;50.830;4.364;2022-08-27T07:23:36;18.60;99.90
23079;DHT22;11707;50.830;4.364;2022-08-27T07:26:10;18.70;99.90
23079;DHT22;11707;50.830;4.364;2022-08-27T07:28:37;18.70;99.90
23079;DHT22;11707;50.830;4.364;2022-08-27T07:31:09;18.80;99.90
23079;DHT22;11707;50.830;4.364;2022-08-27T07:33:39;19.00;99.90
23079;DHT22;11707;50.830;4.364;2022-08-27T07:36:06;19.00;99.90
23079;DHT22;11707;50.830;4.364;2022-08-27T07:38:32;19.10;99.90
23079;DHT22;11707;50.830;4.364;2022-08-27T07:40:58;19.20;99.90
23079;DHT22;11707;50.830;4.364;2022-08-27T07:43:24;19.30;99.90
23079;DHT22;11707;50.830;4.364;2022-08-27T07:46:08;19.20;99.90
23079;DHT22;11707;50.830;4.364;2022-08-27T07:48:34;19.30;99.90
23079;DHT22;11707;50.830;4.364;2022-08-27T07:51:01;19.40;99.90
23079;DHT22;11707;50.830;4.364;2022-08-27T07:53:31;19.50;99.90
23079;DHT22;11707;50.830;4.364;2022-08-27T07:56:04;19.50;99.90
23079;DHT22;11707;50.830;4.364;2022-08-27T07:58:30;19.60;99.90
23079;DHT22;11707;50.830;4.364;2022-08-27T08:00:56;19.70;99.90
23079;DHT22;11707;50.830;4.364;2022-08-27T08:03:22;19.70;99.90
23079;DHT22;11707;50.830;4.364;2022-08-27T08:05:48;19.80;99.90
23079;DHT22;11707;50.830;4.364;2022-08-27T08:08:14;19.90;99.90
23079;DHT22;11707;50.830;4.364;2022-08-27T08:10:41;19.90;99.90
23079;DHT22;11707;50.830;4.364;2022-08-27T08:13:07;20.00;99.90
23079;DHT22;11707;50.830;4.364;2022-08-27T08:15:34;20.20;99.90
23079;DHT22;11707;50.830;4.364;2022-08-27T08:18:00;20.30;99.90
23079;DHT22;11707;50.830;4.364;2022-08-27T08:20:26;20.40;99.90
23079;DHT22;11707;50.830;4.364;2022-08-27T08:22:52;20.40;99.90
23079;DHT22;11707;50.830;4.364;2022-08-27T08:25:18;20.40;99.90
23079;DHT22;11707;50.830;4.364;2022-08-27T08:27:44;20.40;99.90
23079;DHT22;11707;50.830;4.364;2022-08-27T08:30:10;20.60;99.90
23079;DHT22;11707;50.830;4.364;2022-08-27T08:32:36;20.40;99.90
23079;DHT22;11707;50.830;4.364;2022-08-27T08:35:03;20.30;99.90
23079;DHT22;11707;50.830;4.364;2022-08-27T08:37:29;20.30;99.90
23079;DHT22;11707;50.830;4.364;2022-08-27T08:39:55;20.30;99.90
23079;DHT22;11707;50.830;4.364;2022-08-27T08:42:40;20.40;99.90
23079;DHT22;11707;50.830;4.364;2022-08-27T08:45:09;20.50;99.90
23079;DHT22;11707;50.830;4.364;2022-08-27T08:47:43;20.50;99.90
23079;DHT22;11707;50.830;4.364;2022-08-27T08:52:57;20.50;99.90
23079;DHT22;11707;50.830;4.364;2022-08-27T09:00:39;20.40;99.90
23079;DHT22;11707;50.830;4.364;2022-08-27T09:03:06;20.60;99.90
23079;DHT22;11707;50.830;4.364;2022-08-27T09:05:34;20.80;99.90
23079;DHT22;11707;50.830;4.364;2022-08-27T09:10:56;20.80;99.90
23079;DHT22;11707;50.830;4.364;2022-08-27T09:13:34;20.60;99.90
23079;DHT22;11707;50.830;4.364;2022-08-27T09:16:03;20.70;99.90
23079;DHT22;11707;50.830;4.364;2022-08-27T09:18:29;20.90;99.90
23079;DHT22;11707;50.830;4.364;2022-08-27T09:24:03;21.20;99.90
23079;DHT22;11707;50.830;4.364;2022-08-27T09:26:32;21.20;99.90
23079;DHT22;11707;50.830;4.364;2022-08-27T09:29:01;20.90;99.90
23079;DHT22;11707;50.830;4.364;2022-08-27T09:34:12;20.90;99.90
23079;DHT22;11707;50.830;4.364;2022-08-27T09:37:14;20.80;99.90
23079;DHT22;11707;50.830;4.364;2022-08-27T09:40:07;20.80;99.90
23079;DHT22;11707;50.830;4.364;2022-08-27T09:42:40;20.60;99.90
23079;DHT22;11707;50.830;4.364;2022-08-27T09:45:13;20.70;99.90
23079;DHT22;11707;50.830;4.364;2022-08-27T09:47:47;20.80;99.90
23079;DHT22;11707;50.830;4.364;2022-08-27T09:50:16;21.00;99.90
23079;DHT22;11707;50.830;4.364;2022-08-27T09:52:52;20.90;99.90
23079;DHT22;11707;50.830;4.364;2022-08-27T09:55:42;20.80;99.90
23079;DHT22;11707;50.830;4.364;2022-08-27T09:58:19;20.90;99.90
23079;DHT22;11707;50.830;4.364;2022-08-27T10:00:45;21.20;99.90
23079;DHT22;11707;50.830;4.364;2022-08-27T10:03:11;21.50;99.90
23079;DHT22;11707;50.830;4.364;2022-08-27T10:05:49;21.60;99.90
23079;DHT22;11707;50.830;4.364;2022-08-27T10:08:24;21.70;99.90
23079;DHT22;11707;50.830;4.364;2022-08-27T10:13:31;21.60;99.90
23079;DHT22;11707;50.830;4.364;2022-08-27T10:16:31;21.60;99.90
23079;DHT22;11707;50.830;4.364;2022-08-27T10:21:53;21.50;99.90
23079;DHT22;11707;50.830;4.364;2022-08-27T10:25:14;21.40;99.90
23079;DHT22;11707;50.830;4.364;2022-08-27T10:30:13;21.60;99.90
23079;DHT22;11707;50.830;4.364;2022-08-27T10:32:59;21.80;99.90
23079;DHT22;11707;50.830;4.364;2022-08-27T10:38:23;21.90;99.90
23079;DHT22;11707;50.830;4.364;2022-08-27T10:41:04;22.00;99.90
23079;DHT22;11707;50.830;4.364;2022-08-27T10:46:36;21.90;99.90
23079;DHT22;11707;50.830;4.364;2022-08-27T11:00:16;21.50;99.90
23079;DHT22;11707;50.830;4.364;2022-08-27T11:02:52;21.50;99.90
23079;DHT22;11707;50.830;4.364;2022-08-27T11:05:35;21.50;99.90
23079;DHT22;11707;50.830;4.364;2022-08-27T11:10:37;21.70;99.90
23079;DHT22;11707;50.830;4.364;2022-08-27T11:15:52;21.60;99.90
23079;DHT22;11707;50.830;4.364;2022-08-27T11:19:10;21.40;99.90
23079;DHT22;11707;50.830;4.364;2022-08-27T11:24:49;21.20;99.90
23079;DHT22;11707;50.830;4.364;2022-08-27T11:27:16;21.20;99.90
23079;DHT22;11707;50.830;4.364;2022-08-27T11:35:19;21.40;99.90
23079;DHT22;11707;50.830;4.364;2022-08-27T11:41:22;21.70;99.90
23079;DHT22;11707;50.830;4.364;2022-08-27T11:43:47;21.70;99.90
23079;DHT22;11707;50.830;4.364;2022-08-27T11:46:22;21.80;99.90
23079;DHT22;11707;50.830;4.364;2022-08-27T11:48:58;21.70;99.90
23079;DHT22;11707;50.830;4.364;2022-08-27T11:51:32;21.60;99.90
23079;DHT22;11707;50.830;4.364;2022-08-27T11:54:31;21.70;99.90
23079;DHT22;11707;50.830;4.364;2022-08-27T11:57:14;21.80;99.90
23079;DHT22;11707;50.830;4.364;2022-08-27T11:59:39;22.00;99.90
23079;DHT22;11707;50.830;4.364;2022-08-27T12:02:24;22.20;99.90
23079;DHT22;11707;50.830;4.364;2022-08-27T12:06:03;22.10;99.90
23079;DHT22;11707;50.830;4.364;2022-08-27T12:07:52;22.10;99.90
23079;DHT22;11707;50.830;4.364;2022-08-27T12:10:39;22.20;99.90
23079;DHT22;11707;50.830;4.364;2022-08-27T12:13:23;22.50;99.90
23079;DHT22;11707;50.830;4.364;2022-08-27T12:24:37;23.00;99.90
23079;DHT22;11707;50.830;4.364;2022-08-27T12:29:59;23.30;99.90
23079;DHT22;11707;50.830;4.364;2022-08-27T12:32:32;23.20;99.90
23079;DHT22;11707;50.830;4.364;2022-08-27T12:35:03;23.10;99.90
23079;DHT22;11707;50.830;4.364;2022-08-27T12:38:18;23.00;99.90
23079;DHT22;11707;50.830;4.364;2022-08-27T12:40:50;23.20;99.90
23079;DHT22;11707;50.830;4.364;2022-08-27T12:43:24;23.10;99.90
23079;DHT22;11707;50.830;4.364;2022-08-27T12:46:15;23.30;99.90
23079;DHT22;11707;50.830;4.364;2022-08-27T12:48:50;23.30;99.90
23079;DHT22;11707;50.830;4.364;2022-08-27T12:51:29;23.40;99.90
23079;DHT22;11707;50.830;4.364;2022-08-27T12:59:32;23.40;99.90
23079;DHT22;11707;50.830;4.364;2022-08-27T13:04:44;23.20;99.90
23079;DHT22;11707;50.830;4.364;2022-08-27T13:07:23;23.30;99.90
23079;DHT22;11707;50.830;4.364;2022-08-27T13:09:49;23.40;99.90
23079;DHT22;11707;50.830;4.364;2022-08-27T13:12:16;23.20;99.90
23079;DHT22;11707;50.830;4.364;2022-08-27T13:14:43;23.40;99.90
23079;DHT22;11707;50.830;4.364;2022-08-27T13:17:10;23.40;99.90
23079;DHT22;11707;50.830;4.364;2022-08-27T13:19:49;23.40;99.90
23079;DHT22;11707;50.830;4.364;2022-08-27T13:22:38;23.40;99.90
23079;DHT22;11707;50.830;4.364;2022-08-27T13:25:06;23.60;99.90
23079;DHT22;11707;50.830;4.364;2022-08-27T13:27:52;23.30;99.90
23079;DHT22;11707;50.830;4.364;2022-08-27T13:30:18;23.00;99.90
23079;DHT22;11707;50.830;4.364;2022-08-27T13:32:44;23.00;99.90
23079;DHT22;11707;50.830;4.364;2022-08-27T13:35:10;22.90;99.90
23079;DHT22;11707;50.830;4.364;2022-08-27T13:37:44;22.80;99.90
23079;DHT22;11707;50.830;4.364;2022-08-27T13:40:21;22.70;99.90
23079;DHT22;11707;50.830;4.364;2022-08-27T13:42:49;22.60;99.90
23079;DHT22;11707;50.830;4.364;2022-08-27T13:45:16;22.50;99.90
23079;DHT22;11707;50.830;4.364;2022-08-27T13:47:45;22.30;99.90
23079;DHT22;11707;50.830;4.364;2022-08-27T13:50:24;22.30;99.90
23079;DHT22;11707;50.830;4.364;2022-08-27T13:52:51;22.20;99.90
23079;DHT22;11707;50.830;4.364;2022-08-27T13:55:38;22.30;99.90
23079;DHT22;11707;50.830;4.364;2022-08-27T13:58:13;22.30;99.90
23079;DHT22;11707;50.830;4.364;2022-08-27T14:00:42;22.30;99.90
23079;DHT22;11707;50.830;4.364;2022-08-27T14:03:25;22.20;99.90
23079;DHT22;11707;50.830;4.364;2022-08-27T14:05:54;22.30;99.90
23079;DHT22;11707;50.830;4.364;2022-08-27T14:08:21;22.20;99.90
23079;DHT22;11707;50.830;4.364;2022-08-27T14:10:57;22.30;99.90
23079;DHT22;11707;50.830;4.364;2022-08-27T14:13:24;22.30;99.90
23079;DHT22;11707;50.830;4.364;2022-08-27T14:15:57;22.40;99.90
23079;DHT22;11707;50.830;4.364;2022-08-27T14:18:28;22.30;99.90
23079;DHT22;11707;50.830;4.364;2022-08-27T14:20:55;22.40;99.90
23079;DHT22;11707;50.830;4.364;2022-08-27T14:23:21;22.30;99.90
23079;DHT22;11707;50.830;4.364;2022-08-27T14:25:52;22.30;99.90
23079;DHT22;11707;50.830;4.364;2022-08-27T14:28:19;22.40;99.90
23079;DHT22;11707;50.830;4.364;2022-08-27T14:30:45;22.40;99.90
23079;DHT22;11707;50.830;4.364;2022-08-27T14:33:11;22.40;99.90
23079;DHT22;11707;50.830;4.364;2022-08-27T14:35:38;22.60;99.90
23079;DHT22;11707;50.830;4.364;2022-08-27T14:38:16;22.60;99.90
23079;DHT22;11707;50.830;4.364;2022-08-27T14:40:50;22.70;99.90
23079;DHT22;11707;50.830;4.364;2022-08-27T14:43:18;22.60;99.90
23079;DHT22;11707;50.830;4.364;2022-08-27T14:45:45;22.40;99.90
23079;DHT22;11707;50.830;4.364;2022-08-27T14:48:17;22.50;99.90
23079;DHT22;11707;50.830;4.364;2022-08-27T14:50:44;22.60;99.90
23079;DHT22;11707;50.830;4.364;2022-08-27T14:53:10;22.60;99.90
23079;DHT22;11707;50.830;4.364;2022-08-27T14:55:36;22.60;99.90
23079;DHT22;11707;50.830;4.364;2022-08-27T14:58:02;22.60;99.90
23079;DHT22;11707;50.830;4.364;2022-08-27T15:00:27;22.60;99.90
23079;DHT22;11707;50.830;4.364;2022-08-27T15:02:55;22.50;99.90
23079;DHT22;11707;50.830;4.364;2022-08-27T15:05:23;22.30;99.90
23079;DHT22;11707;50.830;4.364;2022-08-27T15:07:49;22.30;99.90
23079;DHT22;11707;50.830;4.364;2022-08-27T15:10:15;22.20;99.90
23079;DHT22;11707;50.830;4.364;2022-08-27T15:12:42;22.30;99.90
23079;DHT22;11707;50.830;4.364;2022-08-27T15:15:08;22.50;99.90
23079;DHT22;11707;50.830;4.364;2022-08-27T15:17:34;22.50;99.90
23079;DHT22;11707;50.830;4.364;2022-08-27T15:20:01;22.60;99.90
23079;DHT22;11707;50.830;4.364;2022-08-27T15:22:31;22.50;99.90
23079;DHT22;11707;50.830;4.364;2022-08-27T15:24:59;22.50;99.90
23079;DHT22;11707;50.830;4.364;2022-08-27T15:27:26;22.50;99.90
23079;DHT22;11707;50.830;4.364;2022-08-27T15:29:52;22.50;99.90
23079;DHT22;11707;50.830;4.364;2022-08-27T15:32:29;22.60;99.90
23079;DHT22;11707;50.830;4.364;2022-08-27T15:34:57;22.70;99.90
23079;DHT22;11707;50.830;4.364;2022-08-27T15:37:23;22.70;99.90
23079;DHT22;11707;50.830;4.364;2022-08-27T15:39:48;22.80;99.90
23079;DHT22;11707;50.830;4.364;2022-08-27T15:42:15;22.70;99.90
23079;DHT22;11707;50.830;4.364;2022-08-27T15:44:46;22.70;99.90
23079;DHT22;11707;50.830;4.364;2022-08-27T15:47:13;22.70;99.90
23079;DHT22;11707;50.830;4.364;2022-08-27T15:49:40;22.70;99.90
23079;DHT22;11707;50.830;4.364;2022-08-27T15:52:07;22.70;99.90
23079;DHT22;11707;50.830;4.364;2022-08-27T15:54:34;22.60;99.90
23079;DHT22;11707;50.830;4.364;2022-08-27T15:56:59;22.70;99.90
23079;DHT22;11707;50.830;4.364;2022-08-27T15:59:26;22.60;99.90
23079;DHT22;11707;50.830;4.364;2022-08-27T16:01:51;22.60;99.90
23079;DHT22;11707;50.830;4.364;2022-08-27T16:04:20;22.60;99.90
23079;DHT22;11707;50.830;4.364;2022-08-27T16:06:45;22.60;99.90
23079;DHT22;11707;50.830;4.364;2022-08-27T16:09:14;22.60;99.90
23079;DHT22;11707;50.830;4.364;2022-08-27T16:11:39;22.60;99.90
23079;DHT22;11707;50.830;4.364;2022-08-27T16:14:05;22.60;99.90
23079;DHT22;11707;50.830;4.364;2022-08-27T16:16:32;22.60;99.90
23079;DHT22;11707;50.830;4.364;2022-08-27T16:19:03;22.70;99.90
23079;DHT22;11707;50.830;4.364;2022-08-27T16:21:30;22.70;99.90
23079;DHT22;11707;50.830;4.364;2022-08-27T16:23:56;22.80;99.90
23079;DHT22;11707;50.830;4.364;2022-08-27T16:26:22;22.80;99.90
23079;DHT22;11707;50.830;4.364;2022-08-27T16:28:47;22.90;99.90
23079;DHT22;11707;50.830;4.364;2022-08-27T16:31:14;22.60;99.90
23079;DHT22;11707;50.830;4.364;2022-08-27T16:33:41;22.50;99.90
23079;DHT22;11707;50.830;4.364;2022-08-27T16:36:07;22.40;99.90
23079;DHT22;11707;50.830;4.364;2022-08-27T16:38:33;22.30;99.90
23079;DHT22;11707;50.830;4.364;2022-08-27T16:41:00;22.30;99.90
23079;DHT22;11707;50.830;4.364;2022-08-27T16:43:26;22.30;99.90
23079;DHT22;11707;50.830;4.364;2022-08-27T16:45:55;22.30;99.90
23079;DHT22;11707;50.830;4.364;2022-08-27T16:48:22;22.40;99.90
23079;DHT22;11707;50.830;4.364;2022-08-27T16:51:12;22.40;99.90
23079;DHT22;11707;50.830;4.364;2022-08-27T16:53:40;22.40;99.90
23079;DHT22;11707;50.830;4.364;2022-08-27T16:56:07;22.50;99.90
23079;DHT22;11707;50.830;4.364;2022-08-27T16:58:34;22.40;99.90
23079;DHT22;11707;50.830;4.364;2022-08-27T17:01:08;22.50;99.90
23079;DHT22;11707;50.830;4.364;2022-08-27T17:03:42;22.50;99.90
23079;DHT22;11707;50.830;4.364;2022-08-27T17:06:09;22.50;99.90
23079;DHT22;11707;50.830;4.364;2022-08-27T17:08:35;22.50;99.90
23079;DHT22;11707;50.830;4.364;2022-08-27T17:11:01;22.40;99.90